首页
METAR-TAF:

METAR-TAF

机场 :

诺加利斯, 亞利桑那州, 美国

纬度: 31-25-15N, 经度: 110-50-45W, 海拔: 1198米

当前天气观测

该预报发布于42分钟前的00:54 UTC
风速11节,风向西转西南,有时为15节阵风
温度 27°C
湿度 7%
气压 1013 hPa
能見度: 16.1公里
天空无云

METAR: KOLS 250054Z AUTO 24011G15KT 10SM CLR 27/M12 A2991 RMK AO2 SLP079 T02671122

时间: 18:36 (01:36 UTC)

预报

该预报发布于2小时和6分钟前的23:30 UTC
预报有效从25日的 00点(UTC)到 25日的 24点(UTC)
风速8节,风向西南
能見度: 10公里
天空无云
从 25日的 0500点(UTC)
风速3节,风向多变
能見度: 10公里
天空无云
从 25日的 1700点(UTC)
风速10节,风向,有时为20节阵风
能見度: 10公里
天空无云
从 25日的 2000点(UTC)
风速15节,风向南转西南,有时为25节阵风
能見度: 10公里
天空无云

TAF: KOLS 242330Z 2500/2524 23008KT P6SM SKC FM250500 VRB03KT P6SM SKC FM251700 18010G20KT P6SM SKC FM252000 20015G25KT P6SM SKC

超过4000个机场的气象观测和天气预报(METAR&TAF报告)。

可查询的气象台以黄色和红色小点在地图上表示。

将鼠标移到小点上方,可查看气象台名称。

然后点击查看天气观测和预报。

如需切换地图:点击带黑十字的绿色按钮放大地图;点击带横线的绿色按钮缩小地图;或者点击绿色箭头查看邻近地区的地图。


METAR-TAF: